Time;durP1;ratioP1;P1;durP2;ratioP2;P2;SDS_P1;SDS_P2;PMS_P1;PMS_P2;Temp;Humidity;BMP_temperature;BMP_pressure;BME280_temperature;BME280_humidity;BME280_pressure;Samples;Min_cycle;Max_cycle;Signal;HPM_P1;HPM_P2
2021/03/29 00:00:00;;;;;;;1.10;0.87;;;22.10;49.60;;;;;;4992306;28;20455;-66
2021/03/29 00:02:26;;;;;;;1.30;1.00;;;22.10;49.50;;;;;;4991978;28;20440;-65
2021/03/29 00:04:52;;;;;;;2.23;1.10;;;22.10;49.50;;;;;;4993585;28;20407;-67
2021/03/29 00:07:19;;;;;;;1.30;1.10;;;22.10;49.60;;;;;;4992330;28;20447;-66
2021/03/29 00:09:46;;;;;;;1.47;0.97;;;22.10;49.50;;;;;;4993541;28;20412;-67
2021/03/29 00:12:13;;;;;;;1.10;0.83;;;22.10;49.60;;;;;;4993106;28;20436;-66
2021/03/29 00:14:40;;;;;;;1.00;0.90;;;22.10;49.50;;;;;;4993487;28;20482;-66
2021/03/29 00:17:06;;;;;;;1.20;0.90;;;22.10;49.60;;;;;;4993451;28;20404;-67
2021/03/29 00:19:33;;;;;;;1.07;0.80;;;22.10;49.60;;;;;;4993556;28;20484;-67
2021/03/29 00:21:59;;;;;;;1.97;0.90;;;22.10;49.60;;;;;;4993288;28;20895;-66
2021/03/29 00:24:25;;;;;;;1.07;0.80;;;22.10;49.60;;;;;;4993413;28;20775;-67
2021/03/29 00:26:52;;;;;;;1.60;1.00;;;22.10;49.60;;;;;;4993596;28;20415;-67
2021/03/29 00:29:18;;;;;;;1.67;0.90;;;22.10;49.60;;;;;;4993350;28;20540;-66
2021/03/29 00:31:44;;;;;;;1.10;0.70;;;22.10;49.60;;;;;;4993367;28;20423;-67
2021/03/29 00:34:10;;;;;;;0.93;0.70;;;22.10;49.60;;;;;;4992923;28;20664;-67
2021/03/29 00:36:36;;;;;;;1.30;1.20;;;22.10;49.60;;;;;;4993336;28;20440;-67
2021/03/29 00:39:06;;;;;;;1.33;1.10;;;22.10;49.60;;;;;;4996241;28;20407;-66
2021/03/29 00:41:32;;;;;;;2.03;1.10;;;22.10;49.60;;;;;;4996983;28;20404;-66
2021/03/29 00:43:59;;;;;;;1.53;0.90;;;22.10;49.70;;;;;;4996654;28;20535;-65
2021/03/29 00:46:26;;;;;;;0.97;0.87;;;22.10;49.60;;;;;;4996894;28;20401;-67
2021/03/29 00:48:53;;;;;;;1.83;1.60;;;22.10;49.60;;;;;;4995485;28;20551;-66
2021/03/29 00:51:20;;;;;;;1.50;1.20;;;22.10;49.70;;;;;;4996927;28;20475;-66
2021/03/29 00:53:49;;;;;;;0.90;0.77;;;22.10;50.20;;;;;;4996234;28;20546;-69
2021/03/29 00:56:16;;;;;;;1.53;1.03;;;22.10;49.70;;;;;;4996706;28;20408;-66
2021/03/29 00:58:44;;;;;;;1.20;1.00;;;22.10;49.70;;;;;;4995437;28;20419;-66
2021/03/29 01:01:19;;;;;;;0.93;0.70;;;22.10;49.70;;;;;;4996593;28;20447;-67
2021/03/29 01:03:50;;;;;;;1.00;0.80;;;22.10;49.70;;;;;;4996147;28;20506;-67
2021/03/29 01:06:22;;;;;;;2.43;0.80;;;22.10;49.70;;;;;;4996558;28;20462;-67
2021/03/29 01:08:51;;;;;;;1.83;1.10;;;22.10;49.70;;;;;;4996660;28;20451;-66
2021/03/29 01:11:25;;;;;;;1.10;0.90;;;22.10;49.70;;;;;;4996683;28;20462;-67
2021/03/29 01:14:01;;;;;;;0.90;0.70;;;22.10;49.70;;;;;;4996063;28;20459;-67
2021/03/29 01:16:32;;;;;;;1.53;0.97;;;22.10;49.80;;;;;;4996375;28;20392;-68
2021/03/29 01:18:59;;;;;;;1.47;0.90;;;22.10;49.70;;;;;;4996537;28;20389;-66
2021/03/29 01:21:43;;;;;;;1.00;0.70;;;22.00;49.60;;;;;;4996327;28;20926;-67
2021/03/29 01:24:35;;;;;;;1.03;0.80;;;22.10;49.70;;;;;;4995890;28;20455;-66
2021/03/29 01:27:02;;;;;;;1.50;1.10;;;22.10;49.70;;;;;;5011337;28;20899;-66
2021/03/29 01:29:31;;;;;;;1.47;0.90;;;22.00;49.70;;;;;;4995634;28;20510;-67
2021/03/29 01:32:01;;;;;;;1.60;0.90;;;22.10;49.80;;;;;;4995885;28;20451;-68
2021/03/29 01:34:30;;;;;;;0.97;0.70;;;22.00;49.70;;;;;;4977323;28;20417;-66
2021/03/29 01:36:58;;;;;;;1.13;1.00;;;22.00;49.70;;;;;;4976529;28;20416;-66
2021/03/29 01:39:25;;;;;;;1.20;0.80;;;22.00;49.70;;;;;;4976402;28;20453;-67
2021/03/29 01:41:51;;;;;;;1.63;0.93;;;22.10;49.80;;;;;;4976418;28;20405;-67
2021/03/29 01:44:18;;;;;;;1.50;0.90;;;22.00;49.70;;;;;;4994999;28;20455;-66
2021/03/29 01:46:45;;;;;;;1.20;0.80;;;22.10;49.80;;;;;;4995827;28;20404;-66
2021/03/29 01:49:11;;;;;;;1.63;0.97;;;22.00;49.70;;;;;;4995372;28;20432;-67
2021/03/29 01:51:37;;;;;;;1.83;0.87;;;22.00;49.70;;;;;;4995373;28;20426;-66
2021/03/29 01:54:03;;;;;;;1.03;0.80;;;22.00;49.70;;;;;;4995507;28;20454;-66
2021/03/29 01:56:29;;;;;;;1.20;0.90;;;22.00;49.70;;;;;;4995673;28;20408;-67
2021/03/29 01:58:55;;;;;;;1.60;0.90;;;22.00;49.70;;;;;;5010913;28;20412;-66
2021/03/29 02:01:20;;;;;;;1.47;1.07;;;22.10;49.80;;;;;;4996326;28;20669;-67
2021/03/29 02:03:48;;;;;;;1.20;0.93;;;22.10;49.80;;;;;;4995116;28;20291;-66
2021/03/29 02:06:14;;;;;;;1.07;0.70;;;22.00;49.70;;;;;;4995412;28;20220;-67
2021/03/29 02:08:42;;;;;;;1.30;1.00;;;22.10;49.80;;;;;;4995430;28;20412;-66
2021/03/29 02:11:09;;;;;;;0.90;0.80;;;22.10;49.80;;;;;;4995294;28;20763;-66
2021/03/29 02:13:41;;;;;;;1.10;0.90;;;22.10;49.80;;;;;;4994923;28;20459;-67
2021/03/29 02:16:09;;;;;;;1.33;0.93;;;22.10;49.80;;;;;;4995329;28;20397;-65
2021/03/29 02:18:56;;;;;;;1.93;1.73;;;22.00;49.70;;;;;;4995175;28;20427;-67
2021/03/29 02:21:32;;;;;;;1.00;0.80;;;22.00;49.70;;;;;;4995210;28;20764;-67
2021/03/29 02:23:59;;;;;;;1.80;1.33;;;22.00;49.80;;;;;;4994749;28;20534;-66
2021/03/29 02:26:27;;;;;;;1.27;0.93;;;22.00;49.70;;;;;;4993775;28;20420;-67
2021/03/29 02:28:54;;;;;;;1.33;0.97;;;22.10;49.80;;;;;;4995004;28;20443;-67
2021/03/29 02:31:23;;;;;;;1.80;1.03;;;22.00;49.70;;;;;;4995216;28;20439;-67
2021/03/29 02:33:50;;;;;;;1.47;0.90;;;22.00;49.70;;;;;;4994602;28;20535;-66
2021/03/29 02:36:16;;;;;;;1.30;0.90;;;22.00;49.80;;;;;;4994853;28;20408;-67
2021/03/29 02:38:42;;;;;;;1.20;0.80;;;22.00;49.70;;;;;;4993555;28;20482;-65
2021/03/29 02:41:09;;;;;;;1.67;0.90;;;22.00;49.70;;;;;;4994714;28;20452;-66
2021/03/29 02:43:35;;;;;;;1.40;0.90;;;22.00;49.70;;;;;;4994204;28;20448;-67
2021/03/29 02:46:06;;;;;;;1.60;1.10;;;22.00;49.80;;;;;;4994679;28;20782;-67
2021/03/29 02:48:44;;;;;;;1.10;0.80;;;22.00;49.70;;;;;;4994722;28;20428;-67
2021/03/29 02:51:12;;;;;;;1.00;0.80;;;22.00;49.70;;;;;;4993325;28;20428;-66
2021/03/29 02:53:39;;;;;;;1.40;0.80;;;22.00;49.80;;;;;;4994306;28;20448;-67
2021/03/29 02:56:09;;;;;;;1.00;0.70;;;22.00;49.80;;;;;;4993039;28;20439;-67
2021/03/29 02:58:39;;;;;;;1.20;0.90;;;22.00;49.80;;;;;;4994652;28;20404;-67
2021/03/29 03:01:09;;;;;;;1.20;0.80;;;22.00;49.80;;;;;;4993423;28;20975;-67
2021/03/29 03:03:37;;;;;;;1.00;0.70;;;22.00;49.80;;;;;;4994325;28;20497;-65
2021/03/29 03:06:03;;;;;;;1.40;0.90;;;22.00;49.80;;;;;;4994635;28;20911;-66
2021/03/29 03:08:49;;;;;;;1.03;0.80;;;22.00;49.80;;;;;;4994239;28;20419;-67
2021/03/29 03:11:16;;;;;;;1.20;0.90;;;22.00;49.80;;;;;;4993788;28;20432;-67
2021/03/29 03:13:46;;;;;;;1.30;0.90;;;22.00;49.80;;;;;;4992930;28;20973;-67
2021/03/29 03:16:12;;;;;;;1.40;0.90;;;22.00;49.80;;;;;;4994115;28;20554;-66
2021/03/29 03:18:39;;;;;;;1.00;0.70;;;22.00;49.80;;;;;;4994039;28;20415;-67
2021/03/29 03:21:06;;;;;;;1.83;0.80;;;22.00;49.80;;;;;;4993706;28;20530;-66
2021/03/29 03:23:32;;;;;;;1.20;0.90;;;22.00;49.80;;;;;;4993993;28;20436;-67
2021/03/29 03:25:57;;;;;;;1.00;0.80;;;22.00;49.80;;;;;;4994005;28;20903;-66
2021/03/29 03:28:26;;;;;;;1.10;0.77;;;22.00;49.90;;;;;;4993996;28;20169;-67
2021/03/29 03:30:57;;;;;;;1.20;0.87;;;22.00;49.90;;;;;;4993709;28;20208;-65
2021/03/29 03:33:27;;;;;;;1.10;0.73;;;22.00;49.90;;;;;;4993879;28;20997;-66
2021/03/29 03:35:54;;;;;;;1.30;0.90;;;22.00;49.90;;;;;;4993903;28;20910;-66
2021/03/29 03:38:25;;;;;;;1.47;0.93;;;22.00;49.90;;;;;;4993836;28;20404;-66
2021/03/29 03:40:59;;;;;;;1.07;0.80;;;22.00;49.90;;;;;;4993462;28;20456;-66
2021/03/29 03:43:32;;;;;;;1.10;0.77;;;22.00;49.90;;;;;;4993730;28;20558;-66
2021/03/29 03:46:02;;;;;;;0.90;0.70;;;22.00;49.90;;;;;;4993811;28;20396;-66
2021/03/29 03:48:29;;;;;;;1.10;0.80;;;22.00;49.90;;;;;;4992546;28;20507;-67
2021/03/29 03:50:56;;;;;;;1.13;0.80;;;22.00;49.90;;;;;;4993241;28;20953;-64
2021/03/29 03:53:23;;;;;;;1.20;1.00;;;22.00;49.90;;;;;;4993649;28;20871;-66
2021/03/29 03:55:54;;;;;;;1.10;0.80;;;22.00;49.90;;;;;;4993639;28;20404;-66
2021/03/29 03:58:21;;;;;;;1.20;0.83;;;22.00;49.90;;;;;;4994197;28;20389;-67
2021/03/29 04:00:47;;;;;;;0.93;0.70;;;22.00;49.90;;;;;;4993310;28;20452;-66
2021/03/29 04:03:13;;;;;;;1.20;0.80;;;21.90;49.90;;;;;;4993684;28;20436;-66
2021/03/29 04:05:39;;;;;;;1.37;0.90;;;21.90;49.90;;;;;;4993578;28;20412;-67
2021/03/29 04:08:06;;;;;;;1.10;0.70;;;21.90;49.90;;;;;;4992275;28;20514;-67
2021/03/29 04:10:47;;;;;;;1.00;0.77;;;21.90;49.90;;;;;;4993150;28;20416;-66
2021/03/29 04:13:17;;;;;;;1.00;0.80;;;21.90;49.90;;;;;;4997196;28;20533;-66
2021/03/29 04:15:43;;;;;;;0.90;0.80;;;21.90;49.90;;;;;;4997480;28;20392;-67
2021/03/29 04:18:08;;;;;;;1.13;0.80;;;21.90;49.90;;;;;;4997442;28;20431;-66
2021/03/29 04:20:36;;;;;;;1.00;0.70;;;21.90;49.90;;;;;;4995719;28;20207;-67
2021/03/29 04:23:02;;;;;;;1.07;0.80;;;21.90;50.00;;;;;;4997253;28;20267;-67
2021/03/29 04:25:28;;;;;;;1.13;0.90;;;21.90;49.90;;;;;;4997407;28;20436;-67
2021/03/29 04:27:54;;;;;;;1.40;1.00;;;21.90;50.00;;;;;;4997305;28;20804;-65
2021/03/29 04:30:20;;;;;;;1.07;0.80;;;21.90;50.00;;;;;;4997005;28;20175;-67
2021/03/29 04:32:47;;;;;;;1.20;0.80;;;21.90;49.90;;;;;;4997099;28;20216;-67
2021/03/29 04:35:14;;;;;;;1.00;0.80;;;21.90;50.00;;;;;;4997175;28;20918;-67
2021/03/29 04:37:40;;;;;;;1.10;0.80;;;21.90;50.00;;;;;;4997081;28;20463;-65
2021/03/29 04:40:06;;;;;;;1.43;0.90;;;21.90;50.00;;;;;;4996955;28;20451;-66
2021/03/29 04:42:31;;;;;;;1.30;0.77;;;21.90;49.90;;;;;;4996644;28;20225;-66
2021/03/29 04:44:57;;;;;;;2.20;0.90;;;21.90;49.90;;;;;;4997242;28;20440;-66
2021/03/29 04:47:22;;;;;;;1.00;0.80;;;21.90;49.90;;;;;;4995704;28;20177;-67
2021/03/29 04:49:48;;;;;;;1.03;0.73;;;22.00;50.00;;;;;;4996735;28;20272;-65
2021/03/29 04:52:14;;;;;;;1.17;0.80;;;21.90;49.80;;;;;;4996542;28;20220;-66
2021/03/29 04:54:40;;;;;;;1.30;0.90;;;22.00;49.90;;;;;;4996775;28;20272;-66
2021/03/29 04:57:06;;;;;;;1.40;0.90;;;22.00;49.90;;;;;;4997046;28;20184;-67
2021/03/29 04:59:31;;;;;;;1.00;0.80;;;22.00;49.90;;;;;;4996911;28;20193;-67
2021/03/29 05:01:57;;;;;;;1.00;0.70;;;22.00;49.90;;;;;;4996344;28;20923;-67
2021/03/29 05:04:23;;;;;;;1.20;1.00;;;22.00;49.80;;;;;;4996548;28;20200;-66
2021/03/29 05:06:48;;;;;;;1.43;0.87;;;22.00;49.80;;;;;;4995347;28;20522;-67
2021/03/29 05:09:14;;;;;;;0.97;0.70;;;22.00;49.80;;;;;;4996490;28;20177;-67
2021/03/29 05:11:46;;;;;;;1.10;0.80;;;22.00;49.80;;;;;;4996758;28;20704;-67
2021/03/29 05:14:13;;;;;;;1.17;0.90;;;22.00;49.80;;;;;;4996380;28;20267;-66
2021/03/29 05:16:39;;;;;;;0.90;0.70;;;22.00;49.80;;;;;;4996339;28;20404;-66
2021/03/29 05:19:05;;;;;;;1.10;0.80;;;22.00;49.80;;;;;;4995994;28;20922;-67
2021/03/29 05:21:31;;;;;;;1.00;0.70;;;22.10;49.80;;;;;;4997041;28;20416;-67
2021/03/29 05:23:56;;;;;;;1.00;0.80;;;22.10;49.80;;;;;;4995466;28;20221;-66
2021/03/29 05:26:22;;;;;;;0.97;0.80;;;22.10;49.80;;;;;;4996229;28;20252;-65
2021/03/29 05:28:48;;;;;;;1.00;0.90;;;22.10;49.80;;;;;;4995995;28;20530;-67
2021/03/29 05:31:13;;;;;;;1.87;1.00;;;22.10;49.80;;;;;;4995377;28;20185;-67
2021/03/29 05:33:39;;;;;;;1.00;0.80;;;22.10;49.80;;;;;;4995858;28;20285;-66
2021/03/29 05:36:07;;;;;;;1.20;0.80;;;22.10;49.80;;;;;;4996267;28;20177;-65
2021/03/29 05:38:33;;;;;;;1.40;0.90;;;22.10;49.80;;;;;;4996218;28;20698;-66
2021/03/29 05:40:58;;;;;;;0.90;0.73;;;22.10;49.80;;;;;;4995852;28;20448;-67
2021/03/29 05:43:24;;;;;;;1.10;0.80;;;22.10;49.80;;;;;;4995528;28;20699;-66
2021/03/29 05:45:50;;;;;;;1.13;0.93;;;22.10;49.80;;;;;;4994613;28;20177;-67
2021/03/29 05:48:17;;;;;;;1.00;0.80;;;22.10;49.80;;;;;;4995917;28;20419;-66
2021/03/29 05:50:43;;;;;;;1.10;0.77;;;22.10;49.80;;;;;;4995780;28;20401;-66
2021/03/29 05:53:08;;;;;;;1.10;0.70;;;22.10;49.80;;;;;;4995602;28;20452;-66
2021/03/29 05:55:37;;;;;;;1.10;0.80;;;22.10;49.80;;;;;;4995444;28;20660;-66
2021/03/29 06:00:37;;;;;;;1.60;1.00;;;22.10;49.80;;;;;;4996001;28;20466;-66
2021/03/29 06:03:21;;;;;;;1.00;0.70;;;22.10;49.80;;;;;;4995276;28;20444;-66
2021/03/29 06:05:50;;;;;;;1.30;0.90;;;22.10;49.70;;;;;;4995735;28;20408;-66
2021/03/29 06:08:16;;;;;;;1.17;0.90;;;22.10;49.80;;;;;;4995348;28;20405;-64
2021/03/29 06:10:44;;;;;;;1.17;0.90;;;22.10;49.80;;;;;;4995290;28;20759;-66
2021/03/29 06:13:25;;;;;;;1.03;0.80;;;22.10;49.80;;;;;;4995333;28;20420;-67
2021/03/29 06:16:05;;;;;;;0.80;0.70;;;22.20;49.80;;;;;;4995697;28;20489;-65
2021/03/29 06:18:31;;;;;;;1.53;1.00;;;22.10;49.70;;;;;;4995293;28;20393;-66
2021/03/29 06:21:00;;;;;;;0.93;0.67;;;22.10;49.80;;;;;;4994849;28;20463;-66
2021/03/29 06:23:28;;;;;;;1.03;0.80;;;22.10;49.80;;;;;;4994975;28;20436;-67
2021/03/29 06:26:16;;;;;;;0.80;0.67;;;22.10;49.80;;;;;;4995349;28;20413;-66
2021/03/29 06:28:42;;;;;;;1.30;0.90;;;22.10;49.70;;;;;;4995301;28;20392;-66
2021/03/29 06:31:25;;;;;;;1.00;0.70;;;22.20;49.80;;;;;;4994630;28;20432;-64
2021/03/29 06:33:52;;;;;;;1.30;0.70;;;22.10;49.70;;;;;;4994929;28;20291;-66
2021/03/29 06:36:37;;;;;;;1.00;0.70;;;22.10;49.70;;;;;;4993946;28;20962;-66
2021/03/29 06:39:17;;;;;;;1.00;0.80;;;22.20;49.80;;;;;;4995170;28;20392;-66
2021/03/29 06:41:53;;;;;;;1.00;0.70;;;22.20;49.70;;;;;;4994476;28;20455;-68
2021/03/29 06:44:27;;;;;;;0.97;0.70;;;22.20;49.80;;;;;;4994703;28;20424;-66
2021/03/29 06:47:08;;;;;;;1.20;0.80;;;22.20;49.80;;;;;;4994745;28;20404;-66
2021/03/29 06:49:47;;;;;;;1.23;0.90;;;22.20;49.70;;;;;;4994700;28;20436;-66
2021/03/29 06:52:31;;;;;;;0.90;0.80;;;22.20;49.70;;;;;;4975065;28;20443;-66
2021/03/29 06:55:20;;;;;;;1.40;1.00;;;22.10;49.70;;;;;;4975138;28;20397;-66
2021/03/29 06:58:03;;;;;;;1.77;1.00;;;22.10;49.60;;;;;;5132253;27;20507;-65
2021/03/29 07:00:31;;;;;;;1.20;0.90;;;22.20;49.70;;;;;;5126461;28;20419;-67
2021/03/29 07:03:05;;;;;;;1.10;0.90;;;22.10;49.70;;;;;;5113145;28;20443;-65
2021/03/29 07:05:31;;;;;;;1.63;0.90;;;22.10;49.60;;;;;;5110962;28;20486;-66
2021/03/29 07:08:02;;;;;;;1.00;0.80;;;22.10;49.70;;;;;;5109514;28;21009;-65
2021/03/29 07:10:29;;;;;;;1.60;1.17;;;22.10;49.60;;;;;;5110575;28;20787;-66
2021/03/29 07:12:55;;;;;;;1.17;0.90;;;22.10;49.60;;;;;;5110641;28;20518;-65
2021/03/29 07:15:21;;;;;;;1.50;0.90;;;22.10;49.60;;;;;;5144123;27;20419;-67
2021/03/29 07:17:48;;;;;;;1.23;1.00;;;22.10;49.60;;;;;;5143580;27;20454;-66
2021/03/29 07:20:27;;;;;;;1.33;0.80;;;22.20;49.70;;;;;;5110200;28;20455;-67
2021/03/29 07:22:56;;;;;;;1.00;0.80;;;22.20;49.70;;;;;;5110529;28;20790;-66
2021/03/29 07:25:32;;;;;;;1.23;0.87;;;22.10;49.60;;;;;;5110640;28;20399;-67
2021/03/29 07:28:00;;;;;;;1.30;1.00;;;22.20;49.70;;;;;;5109702;28;20410;-67
2021/03/29 07:30:44;;;;;;;2.10;1.13;;;22.20;49.70;;;;;;5108960;28;20419;-66
2021/03/29 07:33:11;;;;;;;2.60;1.10;;;22.20;49.70;;;;;;5110426;28;20426;-64
2021/03/29 07:35:56;;;;;;;1.30;1.00;;;22.20;49.90;;;;;;5110346;28;20471;-69
2021/03/29 07:38:26;;;;;;;1.63;0.90;;;22.20;49.80;;;;;;5109360;28;20402;-68
2021/03/29 07:40:55;;;;;;;1.33;0.83;;;22.20;49.70;;;;;;5108565;28;20415;-68
2021/03/29 07:43:32;;;;;;;1.20;0.80;;;22.30;49.70;;;;;;5110254;28;20480;-68
2021/03/29 07:46:06;;;;;;;2.50;0.97;;;22.30;49.60;;;;;;5110397;28;20460;-68
2021/03/29 07:48:46;;;;;;;5.23;1.10;;;22.30;49.60;;;;;;5110041;28;20395;-68
2021/03/29 07:51:16;;;;;;;2.40;1.30;;;22.40;49.70;;;;;;5109831;28;20793;-67
2021/03/29 07:53:49;;;;;;;3.30;1.47;;;22.40;49.60;;;;;;5108460;28;20434;-66
2021/03/29 07:56:42;;;;;;;1.00;0.80;;;22.40;49.60;;;;;;5109645;28;20454;-66
2021/03/29 07:59:08;;;;;;;3.10;1.20;;;22.50;49.70;;;;;;5108215;27;20453;-67
2021/03/29 08:02:02;;;;;;;1.00;0.80;;;22.50;49.70;;;;;;5108161;28;20423;-68
2021/03/29 08:05:19;;;;;;;1.70;1.60;;;22.50;49.70;;;;;;5109689;28;20928;-67
2021/03/29 08:07:48;;;;;;;0.90;0.80;;;22.50;49.60;;;;;;5070328;28;20423;-67
2021/03/29 08:10:16;;;;;;;1.67;0.90;;;22.50;49.70;;;;;;5094506;28;20507;-66
2021/03/29 08:13:00;;;;;;;1.20;0.77;;;22.50;49.70;;;;;;5096204;28;20501;-67
2021/03/29 08:16:04;;;;;;;1.47;0.90;;;22.60;49.70;;;;;;5095832;28;20408;-66
2021/03/29 08:18:49;;;;;;;1.50;0.80;;;22.60;49.70;;;;;;5096026;28;20426;-67
2021/03/29 08:21:52;;;;;;;3.03;0.80;;;22.60;49.70;;;;;;5095611;28;20467;-68
2021/03/29 08:24:19;;;;;;;1.67;0.80;;;22.60;49.70;;;;;;5128570;27;20431;-67
2021/03/29 08:26:45;;;;;;;1.30;0.90;;;22.60;49.70;;;;;;5095806;28;20427;-68
2021/03/29 08:29:13;;;;;;;1.03;0.80;;;22.70;49.70;;;;;;5095894;28;20412;-66
2021/03/29 08:31:59;;;;;;;1.27;0.90;;;22.70;49.70;;;;;;5128220;27;20522;-66
2021/03/29 08:34:25;;;;;;;2.20;0.97;;;22.70;49.70;;;;;;5095478;28;20431;-66
2021/03/29 08:36:53;;;;;;;1.20;0.90;;;22.70;49.70;;;;;;5095489;28;20879;-66
2021/03/29 08:39:20;;;;;;;1.50;1.00;;;22.70;49.60;;;;;;5095680;28;20476;-66
2021/03/29 08:41:49;;;;;;;2.60;0.90;;;22.70;49.60;;;;;;5095112;28;20455;-65
2021/03/29 08:44:15;;;;;;;1.30;0.80;;;22.80;49.70;;;;;;5095520;28;20424;-66
2021/03/29 08:46:44;;;;;;;1.30;1.00;;;22.80;49.70;;;;;;5095552;28;20468;-65
2021/03/29 08:49:10;;;;;;;1.10;0.90;;;22.80;49.60;;;;;;5095143;28;20178;-66
2021/03/29 08:51:35;;;;;;;1.90;1.10;;;22.80;49.70;;;;;;5094889;28;20424;-66
2021/03/29 08:54:09;;;;;;;1.20;0.80;;;22.80;49.70;;;;;;5128192;27;20446;-67
2021/03/29 08:56:43;;;;;;;1.30;0.83;;;22.80;49.60;;;;;;5093679;28;20214;-67
2021/03/29 08:59:09;;;;;;;1.73;0.83;;;22.80;49.60;;;;;;5093479;28;20427;-67
2021/03/29 09:01:39;;;;;;;1.17;0.73;;;22.80;49.60;;;;;;5095251;28;20404;-65
2021/03/29 09:04:06;;;;;;;1.17;1.00;;;22.80;49.60;;;;;;5095139;28;20922;-66
2021/03/29 09:06:32;;;;;;;1.37;1.10;;;22.80;49.60;;;;;;5094975;28;20415;-67
2021/03/29 09:08:58;;;;;;;1.80;1.10;;;22.80;49.60;;;;;;5094749;28;20588;-66
2021/03/29 09:11:24;;;;;;;1.10;0.80;;;22.80;49.60;;;;;;5094913;28;20177;-67
2021/03/29 09:13:54;;;;;;;2.13;0.90;;;22.80;49.60;;;;;;5094799;28;20431;-66
2021/03/29 09:16:23;;;;;;;1.23;1.00;;;22.90;49.70;;;;;;5094711;28;20448;-65
2021/03/29 09:18:49;;;;;;;1.50;0.90;;;22.90;49.70;;;;;;5094156;28;20424;-65
2021/03/29 09:21:23;;;;;;;1.10;0.80;;;22.90;49.70;;;;;;5092824;28;20415;-67
2021/03/29 09:23:49;;;;;;;1.30;0.80;;;22.90;49.70;;;;;;5094534;28;20196;-66
2021/03/29 09:26:25;;;;;;;1.17;0.93;;;22.90;49.60;;;;;;5094632;28;20411;-66
2021/03/29 09:28:52;;;;;;;1.57;1.03;;;22.90;49.70;;;;;;5094398;28;20184;-65
2021/03/29 09:31:23;;;;;;;1.07;0.90;;;22.90;49.70;;;;;;5094445;28;20416;-65
2021/03/29 09:33:50;;;;;;;1.33;0.90;;;22.90;49.70;;;;;;5094865;28;20444;-66
2021/03/29 09:36:18;;;;;;;1.10;0.80;;;22.90;49.70;;;;;;5094489;28;20447;-66
2021/03/29 09:38:48;;;;;;;1.40;0.80;;;22.90;49.60;;;;;;5093940;28;20500;-65
2021/03/29 09:41:25;;;;;;;3.63;1.37;;;22.90;49.60;;;;;;5094447;28;20453;-66
2021/03/29 09:43:55;;;;;;;1.63;0.83;;;22.90;49.60;;;;;;5094509;28;20420;-66
2021/03/29 09:46:29;;;;;;;1.60;0.80;;;22.90;49.60;;;;;;5093086;28;20488;-66
2021/03/29 09:49:13;;;;;;;2.40;0.90;;;23.00;49.70;;;;;;5094349;28;20428;-66
2021/03/29 09:51:41;;;;;;;1.10;0.70;;;23.00;50.30;;;;;;5094309;28;20408;-67
2021/03/29 09:54:27;;;;;;;1.50;0.90;;;22.90;49.60;;;;;;5094130;28;20434;-66
2021/03/29 09:56:58;;;;;;;1.73;1.10;;;23.00;49.70;;;;;;5092667;28;20497;-66
2021/03/29 09:59:25;;;;;;;1.00;0.70;;;23.00;49.70;;;;;;5092642;28;20438;-66
2021/03/29 10:01:51;;;;;;;1.20;0.90;;;23.00;49.70;;;;;;5094142;28;20426;-66
2021/03/29 10:04:17;;;;;;;0.90;0.70;;;23.00;49.70;;;;;;5094326;28;20427;-66
2021/03/29 10:06:56;;;;;;;2.30;1.03;;;23.00;49.70;;;;;;5094040;28;20170;-66
2021/03/29 10:09:33;;;;;;;2.13;1.00;;;23.00;49.70;;;;;;5093579;28;20165;-67
2021/03/29 10:12:00;;;;;;;2.00;1.10;;;23.00;49.60;;;;;;5093933;28;20874;-65
2021/03/29 10:14:37;;;;;;;1.27;0.93;;;23.00;49.70;;;;;;5093579;28;20831;-66
2021/03/29 10:17:26;;;;;;;1.90;1.00;;;23.00;49.60;;;;;;5093669;28;20523;-67
2021/03/29 10:20:02;;;;;;;1.57;1.00;;;23.00;49.60;;;;;;5093383;28;20423;-65
2021/03/29 10:22:28;;;;;;;5.03;1.17;;;23.00;49.70;;;;;;5126927;27;20488;-65
2021/03/29 10:25:22;;;;;;;1.57;0.90;;;23.00;49.50;;;;;;5093550;28;20396;-68
2021/03/29 10:27:50;;;;;;;2.73;0.90;;;23.00;49.40;;;;;;5092194;28;20181;-66
2021/03/29 10:30:22;;;;;;;1.60;1.00;;;23.00;49.40;;;;;;5092946;28;20423;-66
2021/03/29 10:32:52;;;;;;;2.00;1.20;;;23.00;49.40;;;;;;5093558;28;20427;-66
2021/03/29 10:35:20;;;;;;;4.03;1.10;;;23.00;49.40;;;;;;5093300;28;20407;-66
2021/03/29 10:37:46;;;;;;;1.60;1.20;;;23.00;49.40;;;;;;5093141;28;20460;-66
2021/03/29 10:40:13;;;;;;;2.00;0.90;;;23.00;49.40;;;;;;5089569;28;20565;-66
2021/03/29 10:42:41;;;;;;;1.30;1.00;;;23.00;49.40;;;;;;5091750;28;20510;-66
2021/03/29 10:45:09;;;;;;;4.30;1.07;;;23.00;49.40;;;;;;5124372;27;20780;-67
2021/03/29 10:47:35;;;;;;;1.60;1.10;;;23.00;49.40;;;;;;5090664;28;20431;-67
2021/03/29 10:50:01;;;;;;;1.53;0.93;;;23.00;49.40;;;;;;5091392;28;20798;-66
2021/03/29 10:52:26;;;;;;;2.03;0.97;;;23.00;49.40;;;;;;5091262;28;20435;-67
2021/03/29 10:54:52;;;;;;;1.63;0.90;;;23.00;49.50;;;;;;5088169;28;20439;-67
2021/03/29 10:57:18;;;;;;;1.77;0.90;;;23.00;49.50;;;;;;5118665;28;20241;-66
2021/03/29 10:59:44;;;;;;;1.37;0.90;;;23.00;49.50;;;;;;5085286;28;20728;-66
2021/03/29 11:02:10;;;;;;;1.10;1.00;;;23.00;49.50;;;;;;5089608;28;20499;-66
2021/03/29 11:04:36;;;;;;;1.10;0.90;;;23.00;49.50;;;;;;5089228;28;20652;-67
2021/03/29 11:07:02;;;;;;;2.60;1.47;;;23.00;49.50;;;;;;5088928;28;20430;-67
2021/03/29 11:09:28;;;;;;;3.23;1.20;;;22.90;49.40;;;;;;5086761;28;20185;-65
2021/03/29 11:11:53;;;;;;;3.10;1.00;;;23.00;49.50;;;;;;5086569;28;20929;-67
2021/03/29 11:14:22;;;;;;;1.27;1.10;;;23.00;49.40;;;;;;5086294;28;20205;-68
2021/03/29 11:16:52;;;;;;;1.40;1.00;;;23.00;49.50;;;;;;5121827;22;20709;-69
2021/03/29 11:19:19;;;;;;;3.17;1.00;;;23.00;49.50;;;;;;5068908;28;20518;-69
2021/03/29 11:21:46;;;;;;;3.33;1.30;;;23.00;49.50;;;;;;5068913;28;20409;-70
2021/03/29 11:24:12;;;;;;;2.47;1.57;;;22.90;49.40;;;;;;5063018;28;20449;-69
2021/03/29 11:26:38;;;;;;;2.27;1.27;;;22.90;49.40;;;;;;5058904;28;20440;-68
2021/03/29 11:29:04;;;;;;;2.30;1.40;;;23.00;49.50;;;;;;5051179;28;20444;-68
2021/03/29 11:31:30;;;;;;;2.40;1.20;;;23.00;49.50;;;;;;5051199;28;20445;-69
2021/03/29 11:33:56;;;;;;;2.33;1.00;;;23.00;49.50;;;;;;5051120;28;20459;-68
2021/03/29 11:36:21;;;;;;;2.53;1.30;;;23.00;49.50;;;;;;5050185;28;20207;-68
2021/03/29 11:38:49;;;;;;;2.50;1.20;;;23.00;49.50;;;;;;5050351;28;20163;-69
2021/03/29 11:41:16;;;;;;;1.80;1.00;;;23.00;49.50;;;;;;5050413;28;20170;-68
2021/03/29 11:43:42;;;;;;;1.87;1.00;;;23.00;49.50;;;;;;5052535;28;20511;-70
2021/03/29 11:46:08;;;;;;;2.70;0.93;;;23.00;49.50;;;;;;5052662;28;20917;-69
2021/03/29 11:48:34;;;;;;;1.37;0.90;;;23.00;49.50;;;;;;5054076;28;20175;-68
2021/03/29 11:50:59;;;;;;;1.70;1.10;;;23.00;49.50;;;;;;5054117;28;20756;-71
2021/03/29 11:53:25;;;;;;;2.07;1.00;;;23.00;49.50;;;;;;5053718;28;20253;-67
2021/03/29 11:55:52;;;;;;;1.30;1.00;;;23.00;49.40;;;;;;5053845;28;20187;-67
2021/03/29 11:58:17;;;;;;;1.33;1.00;;;23.00;49.40;;;;;;5053910;28;20416;-69
2021/03/29 12:05:44;;;;;;;1.20;1.03;;;23.00;49.40;;;;;;5053582;28;20199;-70
2021/03/29 12:08:18;;;;;;;2.73;1.00;;;23.00;49.40;;;;;;5053725;28;20428;-69
2021/03/29 12:13:32;;;;;;;2.43;1.13;;;23.00;49.50;;;;;;5053392;28;20981;-66
2021/03/29 12:15:59;;;;;;;1.30;1.00;;;23.00;49.50;;;;;;5051844;28;20468;-69
2021/03/29 12:21:35;;;;;;;3.37;2.17;;;23.00;49.50;;;;;;5053787;28;20911;-66
2021/03/29 12:24:07;;;;;;;3.13;1.60;;;23.00;49.50;;;;;;5053197;28;20453;-70
2021/03/29 12:26:33;;;;;;;3.17;1.80;;;23.00;49.50;;;;;;5053319;28;20437;-68
2021/03/29 12:28:59;;;;;;;3.50;2.27;;;22.90;49.50;;;;;;5052029;28;20422;-68
2021/03/29 12:31:25;;;;;;;3.13;2.20;;;22.90;49.40;;;;;;5053006;28;20425;-69
2021/03/29 12:33:52;;;;;;;4.00;2.97;;;22.90;49.40;;;;;;5051980;28;20421;-67
2021/03/29 12:36:19;;;;;;;6.10;3.27;;;22.90;49.40;;;;;;5053097;28;20465;-68
2021/03/29 12:39:07;;;;;;;4.53;3.30;;;22.90;49.40;;;;;;5053078;28;20493;-67
2021/03/29 12:41:38;;;;;;;4.83;4.33;;;22.90;49.40;;;;;;5052793;28;20429;-65
2021/03/29 12:44:10;;;;;;;6.50;3.90;;;22.90;49.40;;;;;;5053089;28;20889;-67
2021/03/29 12:46:38;;;;;;;6.07;4.47;;;22.90;49.50;;;;;;5053024;28;20429;-69
2021/03/29 12:49:08;;;;;;;7.67;4.57;;;22.90;49.50;;;;;;5051646;28;20429;-68
2021/03/29 12:51:34;;;;;;;6.20;3.87;;;22.90;49.50;;;;;;5067691;28;20792;-67
2021/03/29 12:54:10;;;;;;;7.13;4.47;;;22.90;49.50;;;;;;5052780;28;20409;-68
2021/03/29 12:56:37;;;;;;;5.27;3.80;;;22.90;49.40;;;;;;5052782;28;20577;-68
2021/03/29 12:59:06;;;;;;;9.23;5.53;;;22.90;49.50;;;;;;5052742;28;20402;-66
2021/03/29 13:01:33;;;;;;;10.27;5.13;;;22.90;49.50;;;;;;5052424;28;20428;-68
2021/03/29 13:04:05;;;;;;;9.50;6.03;;;22.90;49.50;;;;;;5052706;28;20429;-68
2021/03/29 13:06:38;;;;;;;7.30;4.80;;;22.90;49.50;;;;;;5052573;28;20429;-66
2021/03/29 13:09:12;;;;;;;7.90;5.60;;;22.90;49.50;;;;;;5052547;28;20416;-67
2021/03/29 13:11:39;;;;;;;10.80;6.40;;;22.90;49.50;;;;;;5052366;28;20421;-65